createdAt,value
2023-04-26T00:00:31.471Z,502.00
2023-04-26T00:01:31.523Z,503.00
2023-04-26T00:02:31.667Z,505.00
2023-04-26T00:03:31.877Z,510.00
2023-04-26T00:04:31.852Z,504.00
2023-04-26T00:05:31.802Z,501.00
2023-04-26T00:06:31.846Z,505.00
2023-04-26T00:07:31.943Z,505.00
2023-04-26T00:08:31.987Z,505.00
2023-04-26T00:09:32.041Z,500.00
2023-04-26T00:10:32.152Z,503.00
2023-04-26T00:11:32.155Z,502.00
2023-04-26T00:12:32.160Z,510.00
2023-04-26T00:13:32.235Z,506.00
2023-04-26T00:14:32.333Z,509.00
2023-04-26T00:15:32.355Z,503.00
2023-04-26T00:16:32.491Z,509.00
2023-04-26T00:17:32.501Z,514.00
2023-04-26T00:18:32.595Z,508.00
2023-04-26T00:19:32.590Z,510.00
2023-04-26T00:20:32.665Z,507.00
2023-04-26T00:21:32.752Z,509.00
2023-04-26T00:22:32.818Z,502.00
2023-04-26T00:23:32.868Z,505.00
2023-04-26T00:24:32.963Z,505.00
2023-04-26T00:25:33.027Z,509.00
2023-04-26T00:26:33.131Z,505.00
2023-04-26T00:27:33.155Z,510.00
2023-04-26T00:28:33.209Z,507.00
2023-04-26T00:29:33.306Z,506.00
2023-04-26T00:30:33.331Z,506.00
2023-04-26T00:31:33.472Z,506.00
2023-04-26T00:32:33.551Z,502.00
2023-04-26T00:33:33.583Z,504.00
2023-04-26T00:34:33.587Z,503.00
2023-04-26T00:35:33.614Z,500.00
2023-04-26T00:36:33.665Z,510.00
2023-04-26T00:37:33.721Z,512.00
2023-04-26T00:38:33.771Z,510.00
2023-04-26T00:39:33.855Z,504.00
2023-04-26T00:40:33.909Z,510.00
2023-04-26T00:41:33.991Z,510.00
2023-04-26T00:42:34.064Z,509.00
2023-04-26T00:43:34.117Z,512.00
2023-04-26T00:44:34.190Z,509.00
2023-04-26T00:45:34.264Z,511.00
2023-04-26T00:46:34.257Z,511.00
2023-04-26T00:47:34.364Z,506.00
2023-04-26T00:48:34.346Z,509.00
2023-04-26T00:49:34.419Z,510.00
2023-04-26T00:50:34.513Z,510.00
2023-04-26T00:51:34.527Z,508.00
2023-04-26T00:52:34.633Z,508.00
2023-04-26T00:53:34.691Z,511.00
2023-04-26T00:54:34.755Z,508.00
2023-04-26T00:55:34.848Z,507.00
2023-04-26T00:56:34.866Z,506.00
2023-04-26T00:57:34.933Z,508.00
2023-04-26T00:58:35.013Z,506.00
2023-04-26T00:59:35.047Z,504.00
2023-04-26T01:00:35.105Z,505.00
2023-04-26T01:01:35.297Z,500.00
2023-04-26T01:02:35.275Z,508.00
2023-04-26T01:03:35.347Z,507.00
2023-04-26T01:04:35.358Z,508.00
2023-04-26T01:05:35.339Z,509.00
2023-04-26T01:06:35.402Z,507.00
2023-04-26T01:07:35.416Z,512.00
2023-04-26T01:08:35.458Z,511.00
2023-04-26T01:09:35.630Z,513.00
2023-04-26T01:10:35.581Z,513.00
2023-04-26T01:11:35.664Z,511.00
2023-04-26T01:12:35.700Z,514.00
2023-04-26T01:13:35.733Z,509.00
2023-04-26T01:14:35.750Z,516.00
2023-04-26T01:15:35.821Z,510.00
2023-04-26T01:16:35.936Z,513.00
2023-04-26T01:17:35.911Z,512.00
2023-04-26T01:18:35.949Z,509.00
2023-04-26T01:19:35.970Z,515.00
2023-04-26T01:20:36.030Z,514.00
2023-04-26T01:21:36.118Z,510.00
2023-04-26T01:22:36.147Z,513.00
2023-04-26T01:23:36.205Z,513.00
2023-04-26T01:24:36.239Z,516.00
2023-04-26T01:25:36.264Z,513.00
2023-04-26T01:26:36.404Z,512.00
2023-04-26T01:27:36.411Z,511.00
2023-04-26T01:28:36.487Z,510.00
2023-04-26T01:29:36.449Z,508.00
2023-04-26T01:30:36.529Z,509.00
2023-04-26T01:31:36.747Z,511.00
2023-04-26T01:32:36.674Z,509.00
2023-04-26T01:33:36.669Z,512.00
2023-04-26T01:34:36.716Z,512.00
2023-04-26T01:35:36.772Z,512.00
2023-04-26T01:36:36.833Z,513.00
2023-04-26T01:37:36.882Z,509.00
2023-04-26T01:38:36.920Z,514.00
2023-04-26T01:39:37.000Z,512.00
2023-04-26T01:40:37.004Z,508.00
2023-04-26T01:41:37.071Z,508.00
2023-04-26T01:42:37.095Z,506.00
2023-04-26T01:43:37.161Z,503.00
2023-04-26T01:44:37.201Z,506.00
2023-04-26T01:45:37.245Z,512.00
2023-04-26T01:46:37.421Z,506.00
2023-04-26T01:47:37.363Z,503.00
2023-04-26T01:48:37.363Z,508.00
2023-04-26T01:49:37.452Z,508.00
2023-04-26T01:50:37.508Z,504.00
2023-04-26T01:51:37.526Z,509.00
2023-04-26T01:52:37.525Z,509.00
2023-04-26T01:53:37.622Z,502.00
2023-04-26T01:54:37.688Z,507.00
2023-04-26T01:55:37.734Z,509.00
2023-04-26T01:56:37.789Z,507.00
2023-04-26T01:57:37.838Z,507.00
2023-04-26T01:58:37.891Z,507.00
2023-04-26T01:59:37.984Z,508.00
2023-04-26T02:00:38.068Z,510.00
2023-04-26T02:01:38.094Z,509.00
2023-04-26T02:02:38.193Z,508.00
2023-04-26T02:03:38.230Z,510.00
2023-04-26T02:04:38.201Z,507.00
2023-04-26T02:05:38.217Z,507.00
2023-04-26T02:06:38.322Z,508.00
2023-04-26T02:07:38.353Z,506.00
2023-04-26T02:08:38.399Z,507.00
2023-04-26T02:09:38.467Z,506.00
2023-04-26T02:10:38.575Z,509.00
2023-04-26T02:11:38.566Z,511.00
2023-04-26T02:12:38.631Z,504.00
2023-04-26T02:13:38.661Z,508.00
2023-04-26T02:14:38.703Z,507.00
2023-04-26T02:15:38.811Z,505.00
2023-04-26T02:16:39.047Z,506.00
2023-04-26T02:17:38.918Z,506.00
2023-04-26T02:18:38.941Z,505.00
2023-04-26T02:19:39.031Z,510.00
2023-04-26T02:20:39.032Z,510.00
2023-04-26T02:21:39.126Z,503.00
2023-04-26T02:22:39.196Z,504.00
2023-04-26T02:23:39.257Z,508.00
2023-04-26T02:24:39.309Z,506.00
2023-04-26T02:25:39.376Z,507.00
2023-04-26T02:26:39.410Z,508.00
2023-04-26T02:27:39.435Z,509.00
2023-04-26T02:28:39.485Z,503.00
2023-04-26T02:29:44.523Z,507.00
2023-04-26T02:30:40.522Z,508.00
2023-04-26T02:31:39.537Z,508.00
2023-04-26T02:32:39.703Z,507.00
2023-04-26T02:33:39.523Z,507.00
2023-04-26T02:34:39.525Z,510.00
2023-04-26T02:35:39.495Z,507.00
2023-04-26T02:36:39.501Z,507.00
2023-04-26T02:37:39.510Z,503.00
2023-04-26T02:38:39.501Z,506.00
2023-04-26T02:39:39.514Z,500.00
2023-04-26T02:40:39.585Z,509.00
2023-04-26T02:41:39.612Z,511.00
2023-04-26T02:42:39.650Z,502.00
2023-04-26T02:43:39.686Z,503.00
2023-04-26T02:44:40.028Z,506.00
2023-04-26T02:45:39.755Z,508.00
2023-04-26T02:46:39.867Z,505.00
2023-04-26T02:47:39.930Z,508.00
2023-04-26T02:48:39.897Z,507.00
2023-04-26T02:49:39.935Z,504.00
2023-04-26T02:50:39.973Z,510.00
2023-04-26T02:51:40.024Z,504.00
2023-04-26T02:52:40.058Z,509.00
2023-04-26T02:53:40.103Z,503.00
2023-04-26T02:54:40.084Z,508.00
2023-04-26T02:55:40.137Z,508.00
2023-04-26T02:56:40.195Z,506.00
2023-04-26T02:57:40.218Z,507.00
2023-04-26T02:58:40.288Z,509.00
2023-04-26T02:59:40.331Z,513.00
2023-04-26T03:00:40.411Z,503.00
2023-04-26T03:01:40.470Z,509.00
2023-04-26T03:02:40.596Z,506.00
2023-04-26T03:03:40.539Z,506.00
2023-04-26T03:04:40.512Z,502.00
2023-04-26T03:05:40.578Z,502.00
2023-04-26T03:06:40.617Z,503.00
2023-04-26T03:07:40.672Z,509.00
2023-04-26T03:08:40.726Z,506.00
2023-04-26T03:09:40.797Z,506.00
2023-04-26T03:10:40.856Z,505.00
2023-04-26T03:11:40.906Z,510.00
2023-04-26T03:12:41.108Z,505.00
2023-04-26T03:13:41.039Z,500.00
2023-04-26T03:14:41.208Z,503.00
2023-04-26T03:15:41.127Z,505.00
2023-04-26T03:16:41.276Z,506.00
2023-04-26T03:17:41.277Z,506.00
2023-04-26T03:18:41.341Z,507.00
2023-04-26T03:19:41.294Z,512.00
2023-04-26T03:20:41.398Z,500.00
2023-04-26T03:21:41.410Z,508.00
2023-04-26T03:22:41.461Z,504.00
2023-04-26T03:23:41.523Z,510.00
2023-04-26T03:24:41.528Z,512.00
2023-04-26T03:25:41.582Z,505.00
2023-04-26T03:26:41.630Z,509.00
2023-04-26T03:27:41.649Z,513.00
2023-04-26T03:28:41.696Z,511.00
2023-04-26T03:29:43.898Z,511.00
2023-04-26T03:30:41.852Z,505.00
2023-04-26T03:31:41.826Z,507.00
2023-04-26T03:32:41.902Z,514.00
2023-04-26T03:33:41.914Z,506.00
2023-04-26T03:34:41.991Z,507.00
2023-04-26T03:35:42.002Z,508.00
2023-04-26T03:36:42.044Z,508.00
2023-04-26T03:37:42.115Z,507.00
2023-04-26T03:38:42.077Z,508.00
2023-04-26T03:39:42.158Z,505.00
2023-04-26T03:40:42.185Z,508.00
2023-04-26T03:41:42.255Z,505.00
2023-04-26T03:42:42.260Z,506.00
2023-04-26T03:43:42.317Z,508.00
2023-04-26T03:44:42.439Z,507.00
2023-04-26T03:45:42.447Z,505.00
2023-04-26T03:46:42.471Z,507.00
2023-04-26T03:47:42.666Z,506.00
2023-04-26T03:48:42.549Z,508.00
2023-04-26T03:49:42.568Z,504.00
2023-04-26T03:50:42.625Z,501.00
2023-04-26T03:51:42.674Z,506.00
2023-04-26T03:52:42.746Z,502.00
2023-04-26T03:53:42.754Z,507.00
2023-04-26T03:54:42.802Z,506.00
2023-04-26T03:55:42.861Z,507.00
2023-04-26T03:56:42.887Z,507.00
2023-04-26T03:57:42.961Z,505.00
2023-04-26T03:58:43.033Z,508.00
2023-04-26T03:59:43.083Z,508.00
2023-04-26T04:00:43.218Z,510.00
2023-04-26T04:01:43.140Z,519.00
2023-04-26T04:02:43.415Z,508.00
2023-04-26T04:03:43.508Z,496.00
2023-04-26T04:04:43.536Z,502.00
2023-04-26T04:05:43.439Z,499.00
2023-04-26T04:08:02.377Z,500.00
2023-04-26T04:09:02.336Z,500.00
2023-04-26T04:10:02.353Z,500.00
2023-04-26T04:11:02.337Z,500.00
2023-04-26T04:12:02.357Z,500.00
2023-04-26T04:13:02.314Z,503.00
2023-04-26T04:14:02.332Z,501.00
2023-04-26T04:15:02.286Z,500.00
2023-04-26T04:16:02.373Z,514.00
2023-04-26T04:17:02.318Z,517.00
2023-04-26T04:18:02.349Z,510.00
2023-04-26T04:19:02.326Z,515.00
2023-04-26T04:20:02.316Z,543.00
2023-04-26T04:21:02.285Z,534.00
2023-04-26T04:22:02.271Z,524.00
2023-04-26T04:23:02.313Z,520.00
2023-04-26T04:24:02.251Z,519.00
2023-04-26T04:25:02.237Z,507.00
2023-04-26T04:26:02.209Z,506.00
2023-04-26T04:27:02.271Z,501.00
2023-04-26T04:28:02.285Z,503.00
2023-04-26T04:29:02.206Z,513.00
2023-04-26T04:30:02.217Z,506.00
2023-04-26T04:31:02.207Z,525.00
2023-04-26T04:32:02.214Z,569.00
2023-04-26T04:33:02.238Z,584.00
2023-04-26T04:34:02.211Z,592.00
2023-04-26T04:35:02.158Z,601.00
2023-04-26T04:36:02.146Z,603.00
2023-04-26T04:37:02.162Z,608.00
2023-04-26T04:38:02.130Z,605.00
2023-04-26T04:39:02.151Z,612.00
2023-04-26T04:40:02.120Z,621.00
2023-04-26T04:41:02.127Z,618.00
2023-04-26T04:42:02.209Z,630.00
2023-04-26T04:43:02.266Z,630.00
2023-04-26T04:44:02.342Z,631.00
2023-04-26T04:45:02.392Z,644.00
2023-04-26T04:46:02.476Z,640.00
2023-04-26T04:47:02.478Z,648.00
2023-04-26T04:48:02.536Z,657.00
2023-04-26T04:49:02.555Z,653.00
2023-04-26T04:50:02.600Z,660.00
2023-04-26T04:51:02.644Z,665.00
2023-04-26T04:52:02.708Z,664.00
2023-04-26T04:53:02.754Z,666.00
2023-04-26T04:54:02.838Z,670.00
2023-04-26T04:55:02.870Z,686.00
2023-04-26T04:56:02.902Z,688.00
2023-04-26T04:57:02.953Z,692.00
2023-04-26T04:58:02.992Z,690.00
2023-04-26T04:59:03.035Z,703.00
2023-04-26T05:00:03.107Z,696.00
2023-04-26T05:01:03.140Z,709.00
2023-04-26T05:02:03.212Z,708.00
2023-04-26T05:03:03.352Z,697.00
2023-04-26T05:04:03.510Z,717.00
2023-04-26T05:05:03.483Z,733.00
2023-04-26T05:06:03.422Z,712.00
2023-04-26T05:07:03.499Z,731.00
2023-04-26T05:08:03.521Z,732.00
2023-04-26T05:09:03.634Z,740.00
2023-04-26T05:10:03.621Z,722.00
2023-04-26T05:11:03.666Z,718.00
2023-04-26T05:12:03.692Z,719.00
2023-04-26T05:13:03.807Z,693.00
2023-04-26T05:14:03.825Z,698.00
2023-04-26T05:15:03.939Z,691.00
2023-04-26T05:16:04.012Z,683.00
2023-04-26T05:17:03.982Z,696.00
2023-04-26T05:18:04.115Z,701.00
2023-04-26T05:19:04.123Z,715.00
2023-04-26T05:20:04.166Z,697.00
2023-04-26T05:21:04.278Z,694.00
2023-04-26T05:22:04.231Z,688.00
2023-04-26T05:23:04.256Z,702.00
2023-04-26T05:24:04.319Z,701.00
2023-04-26T05:25:04.365Z,712.00
2023-04-26T05:26:04.382Z,703.00
2023-04-26T05:27:04.462Z,698.00
2023-04-26T05:28:04.535Z,717.00
2023-04-26T05:29:04.584Z,761.00
2023-04-26T05:30:04.644Z,772.00
2023-04-26T05:31:04.745Z,797.00
2023-04-26T05:32:04.866Z,789.00
2023-04-26T05:33:04.835Z,796.00
2023-04-26T05:34:04.876Z,799.00
2023-04-26T05:35:04.914Z,852.00
2023-04-26T05:36:04.972Z,829.00
2023-04-26T05:37:05.015Z,816.00
2023-04-26T05:38:05.090Z,793.00
2023-04-26T05:39:05.110Z,779.00
2023-04-26T05:40:05.184Z,776.00
2023-04-26T05:41:05.231Z,757.00
2023-04-26T05:42:05.630Z,727.00
2023-04-26T05:43:05.583Z,717.00
2023-04-26T05:44:05.410Z,708.00
2023-04-26T05:45:05.459Z,681.00
2023-04-26T05:46:05.586Z,666.00
2023-04-26T05:47:05.578Z,654.00
2023-04-26T05:48:05.695Z,607.00
2023-04-26T05:49:05.682Z,632.00
2023-04-26T05:50:05.738Z,635.00
2023-04-26T05:51:05.860Z,651.00
2023-04-26T05:52:05.945Z,633.00
2023-04-26T05:53:05.960Z,634.00
2023-04-26T05:54:06.011Z,641.00
2023-04-26T05:55:06.129Z,615.00
2023-04-26T05:56:06.120Z,629.00
2023-04-26T05:57:06.201Z,642.00
2023-04-26T05:58:06.230Z,610.00
2023-04-26T05:59:06.273Z,570.00
2023-04-26T06:00:06.392Z,603.00
2023-04-26T06:01:06.437Z,589.00
2023-04-26T06:02:06.487Z,545.00
2023-04-26T06:03:06.737Z,566.00
2023-04-26T06:04:07.175Z,532.00
2023-04-26T06:05:06.895Z,553.00
2023-04-26T06:06:06.761Z,579.00
2023-04-26T06:07:06.776Z,575.00
2023-04-26T06:08:06.841Z,545.00
2023-04-26T06:09:06.915Z,534.00
2023-04-26T06:10:06.995Z,500.00
2023-04-26T06:11:07.038Z,512.00
2023-04-26T06:12:07.115Z,518.00
2023-04-26T06:13:07.145Z,504.00
2023-04-26T06:14:10.454Z,486.00
2023-04-26T06:15:08.149Z,443.00
2023-04-26T06:16:07.184Z,421.00
2023-04-26T06:17:07.194Z,400.00
2023-04-26T06:18:07.612Z,400.00
2023-04-26T06:19:07.279Z,400.00
2023-04-26T06:20:07.126Z,400.00
2023-04-26T06:21:07.170Z,426.00
2023-04-26T06:22:07.207Z,469.00
2023-04-26T06:23:07.330Z,501.00
2023-04-26T06:24:07.093Z,510.00
2023-04-26T06:25:07.106Z,500.00
2023-04-26T06:26:07.087Z,500.00
2023-04-26T06:27:07.069Z,500.00
2023-04-26T06:28:07.140Z,502.00
2023-04-26T06:29:07.109Z,526.00
2023-04-26T06:30:07.091Z,526.00
2023-04-26T06:31:07.127Z,520.00
2023-04-26T06:32:07.150Z,547.00
2023-04-26T06:33:07.252Z,557.00
2023-04-26T06:34:08.430Z,536.00
2023-04-26T06:35:07.242Z,502.00
2023-04-26T06:36:07.282Z,521.00
2023-04-26T06:37:07.398Z,561.00
2023-04-26T06:38:07.391Z,569.00
2023-04-26T06:39:07.598Z,599.00
2023-04-26T06:40:07.429Z,604.00
2023-04-26T06:41:07.545Z,585.00
2023-04-26T06:42:07.523Z,602.00
2023-04-26T06:43:07.557Z,621.00
2023-04-26T06:44:07.640Z,631.00
2023-04-26T06:45:07.719Z,628.00
2023-04-26T06:46:07.859Z,623.00
2023-04-26T06:47:07.830Z,620.00
2023-04-26T06:48:07.953Z,620.00
2023-04-26T06:49:07.986Z,614.00
2023-04-26T06:50:08.014Z,606.00
2023-04-26T06:51:08.088Z,622.00
2023-04-26T06:52:09.457Z,639.00
2023-04-26T06:53:08.413Z,653.00
2023-04-26T06:54:08.249Z,649.00
2023-04-26T06:55:08.296Z,653.00
2023-04-26T06:56:08.416Z,656.00
2023-04-26T06:57:08.412Z,680.00
2023-04-26T06:58:08.622Z,665.00
2023-04-26T06:59:08.519Z,684.00
2023-04-26T07:00:08.570Z,696.00
2023-04-26T07:01:08.652Z,711.00
2023-04-26T07:02:08.816Z,722.00
2023-04-26T07:03:08.833Z,718.00
2023-04-26T07:04:09.076Z,728.00
2023-04-26T07:05:08.962Z,736.00
2023-04-26T07:06:08.913Z,704.00
2023-04-26T07:07:10.086Z,711.00
2023-04-26T07:08:09.036Z,736.00
2023-04-26T07:09:09.011Z,737.00
2023-04-26T07:10:09.077Z,720.00
2023-04-26T07:11:09.086Z,680.00
2023-04-26T07:12:09.198Z,654.00
2023-04-26T07:13:09.750Z,655.00
2023-04-26T07:14:09.204Z,661.00
2023-04-26T07:15:09.254Z,674.00
2023-04-26T07:16:09.267Z,684.00
2023-04-26T07:17:09.474Z,662.00
2023-04-26T07:18:09.406Z,607.00
2023-04-26T07:19:09.376Z,591.00
2023-04-26T07:20:09.381Z,621.00
2023-04-26T07:21:09.383Z,629.00
2023-04-26T07:22:09.431Z,638.00
2023-04-26T07:23:09.458Z,649.00
2023-04-26T07:24:09.609Z,661.00
2023-04-26T07:25:09.523Z,649.00
2023-04-26T07:26:09.527Z,648.00
2023-04-26T07:27:09.563Z,656.00
2023-04-26T07:28:09.607Z,658.00
2023-04-26T07:29:10.169Z,638.00
2023-04-26T07:30:10.101Z,633.00
2023-04-26T07:31:10.975Z,634.00
2023-04-26T07:32:10.177Z,608.00
2023-04-26T07:33:10.227Z,602.00
2023-04-26T07:34:10.175Z,605.00
2023-04-26T07:35:09.932Z,595.00
2023-04-26T07:36:09.949Z,574.00
2023-04-26T07:37:10.036Z,584.00
2023-04-26T07:38:10.055Z,511.00
2023-04-26T07:39:10.063Z,532.00
2023-04-26T07:40:10.143Z,563.00
2023-04-26T07:41:10.096Z,587.00
2023-04-26T07:42:10.144Z,591.00
2023-04-26T07:43:10.151Z,491.00
2023-04-26T07:44:10.189Z,531.00
2023-04-26T07:45:10.207Z,524.00
2023-04-26T07:46:10.245Z,541.00
2023-04-26T07:47:10.239Z,530.00
2023-04-26T07:48:10.327Z,494.00
2023-04-26T07:49:10.242Z,504.00
2023-04-26T07:50:10.294Z,500.00
2023-04-26T07:51:10.250Z,549.00
2023-04-26T07:52:10.311Z,548.00
2023-04-26T07:53:10.337Z,503.00
2023-04-26T07:54:10.317Z,530.00
2023-04-26T07:55:10.343Z,563.00
2023-04-26T07:56:10.372Z,579.00
2023-04-26T07:57:10.312Z,601.00
2023-04-26T07:58:10.377Z,578.00
2023-04-26T07:59:10.346Z,579.00
2023-04-26T08:00:10.562Z,603.00
2023-04-26T08:01:10.398Z,644.00
2023-04-26T08:02:10.390Z,657.00
2023-04-26T08:03:10.575Z,668.00
2023-04-26T08:04:10.768Z,772.00
2023-04-26T08:05:10.522Z,694.00
2023-04-26T08:06:10.475Z,686.00
2023-04-26T08:07:10.375Z,648.00
2023-04-26T08:08:10.395Z,683.00
2023-04-26T08:09:10.362Z,704.00
2023-04-26T08:10:10.361Z,739.00
2023-04-26T08:11:10.826Z,738.00
2023-04-26T08:12:10.432Z,789.00
2023-04-26T08:13:10.493Z,777.00
2023-04-26T08:14:10.363Z,717.00
2023-04-26T08:15:10.372Z,775.00
2023-04-26T08:16:10.344Z,816.00
2023-04-26T08:17:10.505Z,845.00
2023-04-26T08:18:10.394Z,781.00
2023-04-26T08:19:10.460Z,787.00
2023-04-26T08:20:10.329Z,863.00
2023-04-26T08:21:10.347Z,860.00
2023-04-26T08:22:10.345Z,819.00
2023-04-26T08:23:10.386Z,837.00
2023-04-26T08:24:10.664Z,863.00
2023-04-26T08:25:10.418Z,855.00
2023-04-26T08:26:10.724Z,892.00
2023-04-26T08:27:10.493Z,975.00
2023-04-26T08:28:10.533Z,910.00
2023-04-26T08:29:10.504Z,890.00
2023-04-26T08:30:10.536Z,872.00
2023-04-26T08:31:10.553Z,587.00
2023-04-26T08:32:10.516Z,486.00
2023-04-26T08:33:10.592Z,400.00
2023-04-26T08:34:10.581Z,400.00
2023-04-26T08:35:10.658Z,400.00
2023-04-26T08:36:10.621Z,400.00
2023-04-26T08:37:10.697Z,400.00
2023-04-26T08:38:10.762Z,400.00
2023-04-26T08:39:10.718Z,400.00
2023-04-26T08:40:10.759Z,400.00
2023-04-26T08:41:10.791Z,400.00
2023-04-26T08:42:10.828Z,400.00
2023-04-26T08:43:10.808Z,506.00
2023-04-26T08:44:10.845Z,632.00
2023-04-26T08:45:10.949Z,891.00
2023-04-26T08:46:11.169Z,968.00
2023-04-26T08:47:10.905Z,747.00
2023-04-26T08:48:10.907Z,666.00
2023-04-26T08:49:10.931Z,759.00
2023-04-26T08:50:10.941Z,875.00
2023-04-26T08:51:10.955Z,1150.00
2023-04-26T08:52:11.041Z,1305.00
2023-04-26T08:53:11.106Z,1435.00
2023-04-26T08:54:11.130Z,1449.00
2023-04-26T08:55:11.186Z,1405.00
2023-04-26T08:56:11.232Z,1318.00
2023-04-26T08:57:11.281Z,1305.00
2023-04-26T08:58:11.268Z,1277.00
2023-04-26T08:59:12.462Z,1444.00
2023-04-26T09:00:11.441Z,1485.00
2023-04-26T09:01:11.463Z,1586.00
2023-04-26T09:02:11.623Z,1474.00
2023-04-26T09:03:11.738Z,1355.00
2023-04-26T09:04:11.854Z,1331.00
2023-04-26T09:05:11.789Z,1440.00
2023-04-26T09:06:11.508Z,1368.00
2023-04-26T09:07:11.505Z,1359.00
2023-04-26T09:08:11.531Z,1339.00
2023-04-26T09:09:11.669Z,1335.00
2023-04-26T09:10:11.597Z,1335.00
2023-04-26T09:11:11.586Z,1346.00
2023-04-26T09:12:11.552Z,1391.00
2023-04-26T09:13:11.536Z,1309.00
2023-04-26T09:14:11.523Z,1447.00
2023-04-26T09:15:11.562Z,1399.00
2023-04-26T09:16:11.600Z,1399.00
2023-04-26T09:17:11.510Z,1479.00
2023-04-26T09:18:11.521Z,1595.00
2023-04-26T09:19:11.514Z,1595.00
2023-04-26T09:20:11.609Z,1581.00
2023-04-26T09:21:11.560Z,1542.00
2023-04-26T09:22:11.522Z,1291.00
2023-04-26T09:23:11.567Z,1247.00
2023-04-26T09:24:11.560Z,1392.00
2023-04-26T09:25:11.567Z,1511.00
2023-04-26T09:26:11.699Z,1679.00
2023-04-26T09:27:11.632Z,1776.00
2023-04-26T09:28:11.689Z,1831.00
2023-04-26T09:29:11.737Z,1897.00
2023-04-26T09:30:11.746Z,1890.00
2023-04-26T09:31:11.797Z,1917.00
2023-04-26T09:32:11.706Z,1964.00
2023-04-26T09:33:11.813Z,2001.00
2023-04-26T09:34:11.759Z,1892.00
2023-04-26T09:35:12.151Z,1841.00
2023-04-26T09:36:11.826Z,1904.00
2023-04-26T09:37:11.784Z,1915.00
2023-04-26T09:38:13.522Z,1973.00
2023-04-26T09:39:11.756Z,2087.00
2023-04-26T09:40:11.786Z,2114.00
2023-04-26T09:41:12.184Z,2158.00
2023-04-26T09:42:11.785Z,2185.00
2023-04-26T09:43:11.825Z,2187.00
2023-04-26T09:44:11.768Z,1855.00
2023-04-26T09:45:12.322Z,1611.00
2023-04-26T09:46:11.824Z,1485.00
2023-04-26T09:47:12.014Z,1451.00
2023-04-26T09:48:11.822Z,1390.00
2023-04-26T09:49:11.880Z,1379.00
2023-04-26T09:50:12.180Z,1284.00
2023-04-26T09:51:11.944Z,1178.00
2023-04-26T09:52:12.051Z,1206.00
2023-04-26T09:53:12.115Z,1215.00
2023-04-26T09:54:12.161Z,1265.00
2023-04-26T09:55:19.086Z,1229.00
2023-04-26T09:56:13.206Z,1153.00
2023-04-26T09:57:12.236Z,1118.00
2023-04-26T09:58:12.192Z,1075.00
2023-04-26T09:59:12.229Z,1096.00
2023-04-26T10:00:12.283Z,1237.00
2023-04-26T10:01:12.281Z,1277.00
2023-04-26T10:02:12.219Z,1271.00
2023-04-26T10:03:12.374Z,1330.00
2023-04-26T10:04:12.480Z,1439.00
2023-04-26T10:05:12.302Z,1476.00
2023-04-26T10:06:12.346Z,1605.00
2023-04-26T10:07:12.468Z,1368.00
2023-04-26T10:08:12.640Z,1184.00
2023-04-26T10:09:12.728Z,1205.00
2023-04-26T10:10:12.649Z,1467.00
2023-04-26T10:11:12.770Z,1418.00
2023-04-26T10:12:12.704Z,1427.00
2023-04-26T10:13:12.826Z,1335.00
2023-04-26T10:14:12.868Z,1253.00
2023-04-26T10:15:12.960Z,1339.00
2023-04-26T10:16:13.052Z,1361.00
2023-04-26T10:17:13.039Z,1415.00
2023-04-26T10:18:13.166Z,1407.00
2023-04-26T10:19:13.146Z,1370.00
2023-04-26T10:20:13.254Z,1383.00
2023-04-26T10:21:13.308Z,999.00
2023-04-26T10:22:13.392Z,996.00
2023-04-26T10:23:14.541Z,1108.00
2023-04-26T10:24:13.708Z,1207.00
2023-04-26T10:25:13.728Z,1053.00
2023-04-26T10:26:14.233Z,1109.00
2023-04-26T10:27:14.222Z,1101.00
2023-04-26T10:28:14.324Z,1236.00
2023-04-26T10:29:14.260Z,1345.00
2023-04-26T10:30:13.978Z,1531.00
2023-04-26T10:31:14.203Z,1642.00
2023-04-26T10:32:14.429Z,1834.00
2023-04-26T10:33:14.568Z,1894.00
2023-04-26T10:34:14.156Z,1953.00
2023-04-26T10:35:14.748Z,1824.00
2023-04-26T10:36:14.453Z,1810.00
2023-04-26T10:37:14.299Z,1956.00
2023-04-26T10:38:14.345Z,2040.00
2023-04-26T10:39:14.483Z,2051.00
2023-04-26T10:40:14.826Z,2232.00
2023-04-26T10:41:14.710Z,2263.00
2023-04-26T10:42:14.621Z,2331.00
2023-04-26T10:43:14.753Z,2402.00
2023-04-26T10:44:14.745Z,2184.00
2023-04-26T10:45:14.808Z,1869.00
2023-04-26T10:46:15.536Z,1692.00
2023-04-26T10:47:14.948Z,1700.00
2023-04-26T10:48:15.210Z,1570.00
2023-04-26T10:49:15.114Z,1457.00
2023-04-26T10:50:15.734Z,1432.00
2023-04-26T10:51:15.151Z,1745.00
2023-04-26T10:52:15.273Z,1868.00
2023-04-26T10:53:15.274Z,1948.00
2023-04-26T10:54:15.315Z,1923.00
2023-04-26T10:55:15.413Z,1910.00
2023-04-26T10:56:15.559Z,1693.00
2023-04-26T10:57:15.542Z,1615.00
2023-04-26T10:58:15.581Z,1658.00
2023-04-26T10:59:33.057Z,1844.00
2023-04-26T11:00:16.612Z,1848.00
2023-04-26T11:01:15.619Z,1879.00
2023-04-26T11:02:15.636Z,1954.00
2023-04-26T11:03:15.812Z,2110.00
2023-04-26T11:04:15.623Z,2284.00
2023-04-26T11:05:15.620Z,2327.00
2023-04-26T11:06:15.648Z,2337.00
2023-04-26T11:07:15.598Z,2384.00
2023-04-26T11:08:15.607Z,2400.00
2023-04-26T11:09:15.705Z,2216.00
2023-04-26T11:10:15.693Z,1973.00
2023-04-26T11:11:16.229Z,2123.00
2023-04-26T11:12:15.821Z,2187.00
2023-04-26T11:13:15.789Z,2191.00
2023-04-26T11:14:15.866Z,2251.00
2023-04-26T11:15:15.932Z,2273.00
2023-04-26T11:16:16.174Z,2224.00
2023-04-26T11:17:16.046Z,2229.00
2023-04-26T11:18:16.072Z,2171.00
2023-04-26T11:19:16.169Z,2159.00
2023-04-26T11:20:16.180Z,2194.00
2023-04-26T11:21:16.492Z,2255.00
2023-04-26T11:22:16.318Z,2324.00
2023-04-26T11:23:16.346Z,2319.00
2023-04-26T11:24:16.429Z,2284.00
2023-04-26T11:25:16.479Z,2216.00
2023-04-26T11:26:16.568Z,2120.00
2023-04-26T11:27:16.577Z,2037.00
2023-04-26T11:28:16.688Z,2154.00
2023-04-26T11:29:16.682Z,2161.00
2023-04-26T11:30:16.762Z,2061.00
2023-04-26T11:31:16.842Z,1825.00
2023-04-26T11:32:16.874Z,1870.00
2023-04-26T11:33:16.913Z,1927.00
2023-04-26T11:34:17.129Z,1855.00
2023-04-26T11:35:17.137Z,1954.00
2023-04-26T11:36:17.101Z,2030.00
2023-04-26T11:37:17.150Z,2000.00
2023-04-26T11:38:17.185Z,1949.00
2023-04-26T11:39:17.217Z,1880.00
2023-04-26T11:40:17.272Z,1650.00
2023-04-26T11:41:17.339Z,1332.00
2023-04-26T11:42:17.398Z,1157.00
2023-04-26T11:43:17.464Z,1097.00
2023-04-26T11:44:17.566Z,1037.00
2023-04-26T11:45:17.513Z,1345.00
2023-04-26T11:46:17.649Z,1509.00
2023-04-26T11:47:17.714Z,1694.00
2023-04-26T11:48:17.763Z,1846.00
2023-04-26T11:49:17.809Z,1985.00
2023-04-26T11:50:17.820Z,1901.00
2023-04-26T11:51:17.917Z,1231.00
2023-04-26T11:52:18.031Z,1019.00
2023-04-26T11:53:18.005Z,1112.00
2023-04-26T11:54:18.055Z,1314.00
2023-04-26T11:55:18.103Z,1161.00
2023-04-26T11:56:18.177Z,1309.00
2023-04-26T11:57:18.428Z,1269.00
2023-04-26T11:58:18.330Z,1145.00
2023-04-26T11:59:18.401Z,1329.00
2023-04-26T12:00:18.397Z,1407.00
2023-04-26T12:01:18.475Z,1547.00
2023-04-26T12:02:18.595Z,1605.00
2023-04-26T12:03:18.732Z,1737.00
2023-04-26T12:04:18.720Z,1520.00
2023-04-26T12:05:18.625Z,916.00
2023-04-26T12:06:18.579Z,1090.00
2023-04-26T12:07:18.614Z,741.00
2023-04-26T12:08:18.647Z,921.00
2023-04-26T12:09:18.695Z,969.00
2023-04-26T12:10:19.368Z,872.00
2023-04-26T12:11:18.836Z,885.00
2023-04-26T12:12:18.859Z,848.00
2023-04-26T12:13:18.917Z,750.00
2023-04-26T12:14:18.996Z,799.00
2023-04-26T12:15:19.241Z,762.00
2023-04-26T12:16:26.101Z,1010.00
2023-04-26T12:17:20.164Z,1012.00
2023-04-26T12:18:19.132Z,1060.00
2023-04-26T12:19:19.182Z,1184.00
2023-04-26T12:20:19.114Z,1340.00
2023-04-26T12:21:19.078Z,1560.00
2023-04-26T12:22:19.188Z,1564.00
2023-04-26T12:23:19.068Z,1570.00
2023-04-26T12:24:19.029Z,1552.00